createdAt,value
2023-06-18T00:01:50.751Z,15.73
2023-06-18T00:04:54.522Z,15.60
2023-06-18T00:07:57.188Z,15.56
2023-06-18T00:10:59.872Z,15.49
2023-06-18T00:14:02.840Z,15.55
2023-06-18T00:17:06.003Z,15.60
2023-06-18T00:20:08.969Z,15.64
2023-06-18T00:23:11.985Z,15.68
2023-06-18T00:26:14.689Z,15.66
2023-06-18T00:29:19.710Z,15.72
2023-06-18T00:32:22.155Z,15.72
2023-06-18T00:35:24.985Z,15.70
2023-06-18T00:38:28.253Z,15.66
2023-06-18T00:41:32.335Z,15.62
2023-06-18T00:44:35.091Z,15.51
2023-06-18T00:47:38.470Z,15.51
2023-06-18T00:50:42.127Z,15.46
2023-06-18T00:53:46.794Z,15.36
2023-06-18T00:56:52.305Z,15.30
2023-06-18T00:59:56.297Z,15.16
2023-06-18T01:03:00.545Z,15.09
2023-06-18T01:06:04.701Z,15.03
2023-06-18T01:09:08.530Z,15.04
2023-06-18T01:12:11.404Z,15.01
2023-06-18T01:15:13.983Z,15.06
2023-06-18T01:18:17.113Z,15.13
2023-06-18T01:21:22.466Z,15.20
2023-06-18T01:24:30.390Z,15.26
2023-06-18T01:27:37.479Z,15.32
2023-06-18T01:30:40.946Z,15.33
2023-06-18T01:33:43.693Z,15.29
2023-06-18T01:37:06.743Z,15.31
2023-06-18T01:40:18.427Z,15.27
2023-06-18T01:43:27.104Z,15.28
2023-06-18T01:46:30.934Z,15.28
2023-06-18T01:49:34.362Z,15.26
2023-06-18T01:52:42.150Z,15.24
2023-06-18T01:55:47.274Z,15.25
2023-06-18T01:58:52.000Z,15.16
2023-06-18T02:01:56.146Z,14.99
2023-06-18T02:04:59.112Z,14.91
2023-06-18T02:08:01.781Z,14.88
2023-06-18T02:11:04.648Z,14.77
2023-06-18T02:14:07.793Z,14.72
2023-06-18T02:17:11.605Z,14.64
2023-06-18T02:20:15.060Z,14.63
2023-06-18T02:23:20.820Z,14.69
2023-06-18T02:26:26.653Z,14.70
2023-06-18T02:29:29.321Z,14.72
2023-06-18T02:32:35.946Z,14.78
2023-06-18T02:35:38.454Z,14.84
2023-06-18T02:38:41.310Z,14.88
2023-06-18T02:41:46.616Z,14.92
2023-06-18T02:44:49.819Z,14.97
2023-06-18T02:47:52.340Z,14.96
2023-06-18T02:50:55.528Z,14.96
2023-06-18T02:54:00.433Z,14.96
2023-06-18T02:57:03.758Z,14.98
2023-06-18T03:00:13.008Z,15.00
2023-06-18T03:03:16.222Z,15.02
2023-06-18T03:06:19.232Z,15.05
2023-06-18T03:09:22.160Z,15.07
2023-06-18T03:12:25.609Z,15.08
2023-06-18T03:15:29.013Z,15.11
2023-06-18T03:18:31.612Z,15.14
2023-06-18T03:21:34.581Z,15.11
2023-06-18T03:24:39.702Z,15.19
2023-06-18T03:27:43.394Z,15.26
2023-06-18T03:30:47.067Z,15.32
2023-06-18T03:33:50.155Z,15.39
2023-06-18T03:36:52.922Z,15.46
2023-06-18T03:39:56.049Z,15.54
2023-06-18T03:42:58.936Z,15.66
2023-06-18T03:46:01.789Z,15.77
2023-06-18T03:49:05.991Z,15.86
2023-06-18T03:52:08.970Z,15.99
2023-06-18T03:55:11.474Z,16.11
2023-06-18T03:58:14.797Z,16.20
2023-06-18T04:01:19.227Z,16.29
2023-06-18T04:04:22.259Z,16.41
2023-06-18T04:07:24.751Z,16.55
2023-06-18T04:10:27.821Z,16.58
2023-06-18T04:13:30.807Z,16.75
2023-06-18T04:16:34.042Z,16.83
2023-06-18T04:19:37.151Z,16.95
2023-06-18T04:22:40.056Z,17.06
2023-06-18T04:25:43.918Z,17.21
2023-06-18T04:28:47.592Z,17.31
2023-06-18T04:31:50.490Z,17.45
2023-06-18T04:34:53.956Z,17.55
2023-06-18T04:37:56.659Z,17.64
2023-06-18T04:40:59.631Z,17.82
2023-06-18T04:44:02.129Z,17.93
2023-06-18T04:47:05.571Z,18.09
2023-06-18T04:50:08.832Z,18.20
2023-06-18T04:53:13.551Z,18.26
2023-06-18T04:56:16.398Z,18.42
2023-06-18T04:59:22.549Z,18.53
2023-06-18T05:02:27.192Z,18.71
2023-06-18T05:05:30.406Z,18.91
2023-06-18T05:08:33.209Z,19.06
2023-06-18T05:11:36.237Z,19.17
2023-06-18T05:14:38.688Z,19.29
2023-06-18T05:17:41.603Z,19.39
2023-06-18T05:20:44.901Z,19.51
2023-06-18T05:23:47.742Z,19.62
2023-06-18T05:26:50.409Z,19.75
2023-06-18T05:29:53.490Z,19.92
2023-06-18T05:32:56.149Z,20.24
2023-06-18T05:36:00.105Z,20.57
2023-06-18T05:39:03.725Z,21.09
2023-06-18T05:42:07.561Z,21.55
2023-06-18T05:45:11.089Z,21.67
2023-06-18T05:48:16.004Z,22.01
2023-06-18T05:51:19.279Z,22.17
2023-06-18T05:54:22.286Z,22.45
2023-06-18T05:57:24.817Z,22.63
2023-06-18T06:00:28.320Z,22.94
2023-06-18T06:03:31.458Z,23.07
2023-06-18T06:06:34.763Z,23.19
2023-06-18T06:09:38.056Z,23.50
2023-06-18T06:12:41.479Z,23.77
2023-06-18T06:15:44.374Z,23.60
2023-06-18T06:18:46.860Z,23.67
2023-06-18T06:21:49.797Z,24.10
2023-06-18T06:24:52.472Z,24.22
2023-06-18T06:27:55.639Z,24.53
2023-06-18T06:30:58.113Z,24.62
2023-06-18T06:34:01.591Z,24.92
2023-06-18T06:37:05.002Z,24.91
2023-06-18T06:40:09.256Z,25.09
2023-06-18T06:43:12.259Z,25.41
2023-06-18T06:46:16.088Z,25.21
2023-06-18T06:49:18.944Z,25.33
2023-06-18T06:52:21.698Z,25.46
2023-06-18T06:55:24.154Z,25.17
2023-06-18T06:58:27.432Z,25.32
2023-06-18T07:01:30.266Z,25.83
2023-06-18T07:04:33.787Z,25.79
2023-06-18T07:07:39.314Z,26.08
2023-06-18T07:10:42.322Z,26.37
2023-06-18T07:13:45.164Z,25.98
2023-06-18T07:16:49.190Z,25.89
2023-06-18T07:19:53.762Z,26.07
2023-06-18T07:22:56.522Z,26.38
2023-06-18T07:25:59.098Z,26.31
2023-06-18T07:29:02.082Z,26.05
2023-06-18T07:32:04.976Z,26.10
2023-06-18T07:35:08.474Z,26.45
2023-06-18T07:38:11.036Z,26.71
2023-06-18T07:41:13.745Z,26.90
2023-06-18T07:44:16.558Z,27.00
2023-06-18T07:47:19.741Z,27.04
2023-06-18T07:50:23.631Z,27.10
2023-06-18T07:53:26.886Z,27.32
2023-06-18T07:56:31.460Z,27.56
2023-06-18T07:59:34.471Z,27.36
2023-06-18T08:02:37.240Z,27.79
2023-06-18T08:05:40.139Z,28.12
2023-06-18T08:08:43.138Z,28.15
2023-06-18T08:11:46.149Z,28.24
2023-06-18T08:14:49.146Z,28.04
2023-06-18T08:17:53.805Z,28.03
2023-06-18T08:20:56.405Z,28.02
2023-06-18T08:23:59.388Z,28.44
2023-06-18T08:27:02.081Z,28.84
2023-06-18T08:30:06.228Z,29.16
2023-06-18T08:33:10.940Z,28.87
2023-06-18T08:36:13.653Z,29.03
2023-06-18T08:39:16.521Z,28.85
2023-06-18T08:42:21.921Z,28.60
2023-06-18T08:45:24.690Z,28.69
2023-06-18T08:48:32.421Z,28.82
2023-06-18T08:51:39.268Z,29.07
2023-06-18T08:54:43.726Z,29.18
2023-06-18T08:58:00.406Z,29.27
2023-06-18T09:01:04.422Z,29.31
2023-06-18T09:04:07.620Z,28.93
2023-06-18T09:07:10.536Z,29.47
2023-06-18T09:10:13.655Z,29.35
2023-06-18T09:13:16.671Z,29.60
2023-06-18T09:16:20.038Z,29.51
2023-06-18T09:19:24.504Z,29.82
2023-06-18T09:22:27.174Z,29.85
2023-06-18T09:25:34.536Z,29.67
2023-06-18T09:28:38.005Z,29.32
2023-06-18T09:31:45.895Z,30.14
2023-06-18T09:34:48.437Z,30.22
2023-06-18T09:37:51.380Z,30.20
2023-06-18T09:40:53.859Z,30.29
2023-06-18T09:43:57.254Z,30.20
2023-06-18T09:47:00.188Z,29.97
2023-06-18T09:50:06.465Z,30.20
2023-06-18T09:53:17.814Z,30.52
2023-06-18T09:56:22.105Z,30.77
2023-06-18T09:59:27.024Z,30.32
2023-06-18T10:02:29.760Z,30.76
2023-06-18T10:05:33.185Z,30.87
2023-06-18T10:08:38.810Z,29.39
2023-06-18T10:11:43.257Z,30.53
2023-06-18T10:14:47.250Z,30.58
2023-06-18T10:17:56.915Z,30.84
2023-06-18T10:21:06.123Z,30.68
2023-06-18T10:24:19.854Z,30.54
2023-06-18T10:27:22.746Z,31.03
2023-06-18T10:30:26.289Z,30.82
2023-06-18T10:33:32.301Z,30.67
2023-06-18T10:36:36.592Z,30.90
2023-06-18T10:39:39.711Z,30.70
2023-06-18T10:42:42.716Z,31.30
2023-06-18T10:46:15.558Z,30.89
2023-06-18T10:49:21.279Z,31.28
2023-06-18T10:52:26.263Z,31.45
2023-06-18T10:55:32.101Z,31.19
2023-06-18T10:58:38.774Z,31.34
2023-06-18T11:01:44.190Z,31.07
2023-06-18T11:04:49.314Z,31.46
2023-06-18T11:08:27.316Z,31.77
2023-06-18T11:11:32.280Z,31.10
2023-06-18T11:14:34.975Z,30.51
2023-06-18T11:17:39.519Z,30.32
2023-06-18T11:20:45.634Z,30.89
2023-06-18T11:23:49.734Z,31.06
2023-06-18T11:26:52.624Z,30.91
2023-06-18T11:29:58.427Z,30.97
2023-06-18T11:33:01.875Z,30.97
2023-06-18T11:36:13.441Z,31.38
2023-06-18T11:39:17.162Z,31.57
2023-06-18T11:42:21.656Z,31.68
2023-06-18T11:45:24.876Z,31.23
2023-06-18T11:48:27.799Z,31.52
2023-06-18T11:51:32.655Z,30.92
2023-06-18T11:54:40.155Z,30.66
2023-06-18T11:57:43.624Z,31.23
2023-06-18T12:00:46.053Z,29.90
2023-06-18T12:03:49.087Z,31.12
2023-06-18T12:06:51.539Z,30.61
2023-06-18T12:09:57.058Z,30.62
2023-06-18T12:13:11.707Z,30.09
2023-06-18T12:16:24.647Z,30.15
2023-06-18T12:19:28.145Z,29.47
2023-06-18T12:22:31.214Z,29.27
2023-06-18T12:25:34.033Z,29.73
2023-06-18T12:28:40.788Z,30.07
2023-06-18T12:31:44.751Z,29.80
2023-06-18T12:34:47.771Z,30.20
2023-06-18T12:37:51.367Z,30.70
2023-06-18T12:41:01.587Z,30.90
2023-06-18T12:44:05.504Z,31.31
2023-06-18T12:47:11.053Z,30.56
2023-06-18T12:50:21.154Z,31.37
2023-06-18T12:53:26.611Z,30.63
2023-06-18T12:56:29.592Z,30.94
2023-06-18T12:59:32.709Z,29.99
2023-06-18T13:02:35.499Z,30.26
2023-06-18T13:05:38.607Z,30.70
2023-06-18T13:08:41.426Z,30.40
2023-06-18T13:11:45.397Z,29.93
2023-06-18T13:14:48.201Z,30.47
2023-06-18T13:17:51.077Z,30.72
2023-06-18T13:20:56.249Z,29.98
2023-06-18T13:23:59.030Z,30.19
2023-06-18T13:27:01.504Z,30.50
2023-06-18T13:30:04.610Z,30.69
2023-06-18T13:33:07.187Z,30.19
2023-06-18T13:36:11.152Z,30.38
2023-06-18T13:39:13.893Z,29.86
2023-06-18T13:42:18.067Z,30.24
2023-06-18T13:45:22.042Z,30.29
2023-06-18T13:48:25.441Z,29.35
2023-06-18T13:51:27.967Z,29.21
2023-06-18T13:54:31.598Z,29.80
2023-06-18T13:57:34.262Z,29.66
2023-06-18T14:00:37.226Z,29.64
2023-06-18T14:03:41.120Z,29.69
2023-06-18T14:06:43.727Z,30.07
2023-06-18T14:09:47.429Z,29.96
2023-06-18T14:12:51.246Z,30.25
2023-06-18T14:15:56.733Z,30.08
2023-06-18T14:18:59.481Z,30.04
2023-06-18T14:22:02.578Z,29.76
2023-06-18T14:25:05.647Z,29.48
2023-06-18T14:28:08.436Z,29.58
2023-06-18T14:31:12.158Z,29.78
2023-06-18T14:34:15.711Z,29.87
2023-06-18T14:37:23.234Z,29.97
2023-06-18T14:40:25.946Z,29.93
2023-06-18T14:43:28.672Z,30.00
2023-06-18T14:46:31.447Z,29.87
2023-06-18T14:49:35.624Z,29.48
2023-06-18T14:52:39.149Z,29.30
2023-06-18T14:55:41.937Z,29.03
2023-06-18T14:58:44.904Z,29.10
2023-06-18T15:01:47.666Z,28.72
2023-06-18T15:04:53.468Z,28.87
2023-06-18T15:07:56.090Z,28.81
2023-06-18T15:10:58.935Z,28.86
2023-06-18T15:14:01.884Z,28.93
2023-06-18T15:17:06.485Z,28.63
2023-06-18T15:20:10.451Z,28.76
2023-06-18T15:23:13.446Z,28.64
2023-06-18T15:26:16.544Z,28.60
2023-06-18T15:29:19.318Z,28.56
2023-06-18T15:32:22.729Z,28.42
2023-06-18T15:35:25.743Z,28.51
2023-06-18T15:38:28.567Z,28.48
2023-06-18T15:41:31.276Z,28.41
2023-06-18T15:44:33.664Z,28.35
2023-06-18T15:47:36.531Z,28.36
2023-06-18T15:50:41.033Z,28.28
2023-06-18T15:53:43.962Z,28.20
2023-06-18T15:56:46.716Z,28.07
2023-06-18T15:59:49.878Z,27.97
2023-06-18T16:02:52.653Z,27.88
2023-06-18T16:05:55.680Z,27.75
2023-06-18T16:08:58.628Z,27.49
2023-06-18T16:12:01.379Z,27.25
2023-06-18T16:15:04.993Z,27.30
2023-06-18T16:18:09.069Z,27.37
2023-06-18T16:21:11.976Z,27.43
2023-06-18T16:24:17.625Z,27.40
2023-06-18T16:27:20.334Z,27.32
2023-06-18T16:30:23.451Z,27.27
2023-06-18T16:33:26.128Z,27.11
2023-06-18T16:36:30.786Z,27.08
2023-06-18T16:39:37.678Z,27.01
2023-06-18T16:42:40.532Z,26.70
2023-06-18T16:45:44.427Z,26.63
2023-06-18T16:48:47.408Z,26.54
2023-06-18T16:51:50.109Z,26.38
2023-06-18T16:54:52.931Z,26.32
2023-06-18T16:57:55.677Z,26.23
2023-06-18T17:00:58.915Z,26.14
2023-06-18T17:04:03.742Z,26.04
2023-06-18T17:07:06.884Z,25.98
2023-06-18T17:10:09.887Z,25.89
2023-06-18T17:13:13.591Z,25.79
2023-06-18T17:16:17.240Z,25.67
2023-06-18T17:19:20.871Z,25.65
2023-06-18T17:22:23.581Z,25.50
2023-06-18T17:25:26.521Z,25.40
2023-06-18T17:28:32.352Z,25.35
2023-06-18T17:31:35.304Z,25.33
2023-06-18T17:34:37.954Z,25.21
2023-06-18T17:37:40.754Z,25.10
2023-06-18T17:40:43.479Z,25.01
2023-06-18T17:43:46.682Z,24.95
2023-06-18T17:46:49.201Z,24.87
2023-06-18T17:49:52.641Z,24.84
2023-06-18T17:52:55.918Z,24.72
2023-06-18T17:55:59.409Z,24.65
2023-06-18T17:59:06.531Z,24.56
2023-06-18T18:02:09.839Z,24.48
2023-06-18T18:05:12.679Z,24.39
2023-06-18T18:08:17.016Z,24.29
2023-06-18T18:11:21.337Z,24.18
2023-06-18T18:14:24.389Z,24.05
2023-06-18T18:17:27.188Z,23.95
2023-06-18T18:20:31.516Z,23.83
2023-06-18T18:23:36.124Z,23.69
2023-06-18T18:26:48.462Z,23.54
2023-06-18T18:29:52.290Z,23.39
2023-06-18T18:32:55.065Z,23.19
2023-06-18T18:35:58.104Z,23.03
2023-06-18T18:39:00.861Z,22.86
2023-06-18T18:42:04.101Z,22.70
2023-06-18T18:45:08.436Z,22.54
2023-06-18T18:48:11.314Z,22.39
2023-06-18T18:51:14.528Z,22.20
2023-06-18T18:54:17.682Z,22.05
2023-06-18T18:57:21.640Z,21.91
2023-06-18T19:00:24.617Z,21.79
2023-06-18T19:03:28.617Z,21.69
2023-06-18T19:06:32.529Z,21.58
2023-06-18T19:09:36.489Z,21.51
2023-06-18T19:12:40.441Z,21.41
2023-06-18T19:15:44.241Z,21.29
2023-06-18T19:18:47.350Z,21.16
2023-06-18T19:21:50.579Z,21.03
2023-06-18T19:24:55.531Z,20.91
2023-06-18T19:28:01.435Z,20.77
2023-06-18T19:31:05.852Z,20.63
2023-06-18T19:34:08.992Z,20.52
2023-06-18T19:37:12.107Z,20.44
2023-06-18T19:40:15.106Z,20.40
2023-06-18T19:43:18.657Z,20.32
2023-06-18T19:46:21.969Z,20.20
2023-06-18T19:49:25.275Z,20.15
2023-06-18T19:52:28.494Z,20.02
2023-06-18T19:55:32.242Z,19.93
2023-06-18T19:58:35.453Z,19.79
2023-06-18T20:01:38.727Z,19.76
2023-06-18T20:04:41.861Z,19.74
2023-06-18T20:07:44.520Z,19.67
2023-06-18T20:10:47.376Z,19.67
2023-06-18T20:13:53.363Z,19.61
2023-06-18T20:16:56.547Z,19.59
2023-06-18T20:20:01.385Z,19.60
2023-06-18T20:23:04.684Z,19.57
2023-06-18T20:26:07.800Z,19.49
2023-06-18T20:29:10.637Z,19.31
2023-06-18T20:32:13.834Z,19.25
2023-06-18T20:35:17.140Z,19.20
2023-06-18T20:38:19.938Z,19.10
2023-06-18T20:41:22.953Z,19.07
2023-06-18T20:44:25.931Z,18.99
2023-06-18T20:47:29.008Z,18.96
2023-06-18T20:50:31.766Z,18.88
2023-06-18T20:53:35.131Z,18.83
2023-06-18T20:56:37.638Z,18.75
2023-06-18T20:59:40.495Z,18.67
2023-06-18T21:02:43.284Z,18.58
2023-06-18T21:05:46.303Z,18.58
2023-06-18T21:08:49.081Z,18.51
2023-06-18T21:11:52.055Z,18.45
2023-06-18T21:14:54.680Z,18.44
2023-06-18T21:17:57.527Z,18.42
2023-06-18T21:21:00.242Z,18.41
2023-06-18T21:24:03.492Z,18.41
2023-06-18T21:27:06.658Z,18.40
2023-06-18T21:30:10.364Z,18.23
2023-06-18T21:33:12.903Z,18.20
2023-06-18T21:36:15.783Z,18.19
2023-06-18T21:39:19.305Z,18.22
2023-06-18T21:42:22.294Z,18.21
2023-06-18T21:45:25.017Z,18.16
2023-06-18T21:48:28.006Z,18.03
2023-06-18T21:51:30.459Z,18.09
2023-06-18T21:54:33.359Z,18.04
2023-06-18T21:57:37.196Z,18.00
2023-06-18T22:00:40.204Z,18.02
2023-06-18T22:03:43.276Z,18.00
2023-06-18T22:06:45.981Z,17.97
2023-06-18T22:09:48.699Z,17.93
2023-06-18T22:12:51.175Z,17.87
2023-06-18T22:15:53.874Z,17.80
2023-06-18T22:18:59.501Z,17.76
2023-06-18T22:22:02.187Z,17.72
2023-06-18T22:25:06.031Z,17.67
2023-06-18T22:28:08.997Z,17.58
2023-06-18T22:31:11.699Z,17.48
2023-06-18T22:34:16.277Z,17.43
2023-06-18T22:37:22.784Z,17.49
2023-06-18T22:40:27.242Z,17.41
2023-06-18T22:43:30.604Z,17.35
2023-06-18T22:46:34.256Z,17.32
2023-06-18T22:49:36.852Z,17.24
2023-06-18T22:52:39.841Z,17.32
2023-06-18T22:55:42.499Z,17.31
2023-06-18T22:58:45.277Z,17.26
2023-06-18T23:01:48.534Z,17.26
2023-06-18T23:04:52.178Z,17.31
2023-06-18T23:07:55.029Z,17.27
2023-06-18T23:10:57.813Z,17.24
2023-06-18T23:14:00.523Z,17.11
2023-06-18T23:17:03.801Z,16.95
2023-06-18T23:20:07.213Z,16.92
2023-06-18T23:23:10.168Z,16.90
2023-06-18T23:26:12.912Z,16.87
2023-06-18T23:29:17.967Z,16.80
2023-06-18T23:32:20.801Z,16.77
2023-06-18T23:35:24.205Z,16.78
2023-06-18T23:38:29.801Z,16.77
2023-06-18T23:41:32.686Z,16.80
2023-06-18T23:44:35.212Z,16.73
2023-06-18T23:47:38.014Z,16.74
2023-06-18T23:50:41.439Z,16.71
2023-06-18T23:53:44.148Z,16.55
2023-06-18T23:56:46.834Z,16.45
2023-06-18T23:59:50.036Z,16.37
